Time;durP1;ratioP1;P1;durP2;ratioP2;P2;SDS_P1;SDS_P2;PMS_P1;PMS_P2;Temp;Humidity;BMP_temperature;BMP_pressure;BME280_temperature;BME280_humidity;BME280_pressure;Samples;Min_cycle;Max_cycle;Signal;HPM_P1;HPM_P2
2022/05/30 00:01:11;;;;;;;1.40;1.10;;;14.10;40.70;;;;;;5016496;28;20968;-77
2022/05/30 00:03:40;;;;;;;0.93;0.93;;;14.10;26.50;;;;;;5019390;28;20221;-77
2022/05/30 00:06:10;;;;;;;1.20;1.10;;;14.10;28.50;;;;;;5016890;28;20517;-76
2022/05/30 00:08:39;;;;;;;0.90;0.80;;;14.00;26.60;;;;;;5018636;28;20974;-77
2022/05/30 00:11:13;;;;;;;1.13;0.87;;;13.90;28.00;;;;;;5020299;28;20480;-77
2022/05/30 00:13:42;;;;;;;1.17;1.07;;;13.90;25.80;;;;;;5030384;28;20979;-78
2022/05/30 00:16:13;;;;;;;1.43;1.00;;;13.90;27.00;;;;;;5013764;28;20452;-78
2022/05/30 00:18:43;;;;;;;1.30;0.90;;;13.80;26.20;;;;;;5019555;28;20468;-78
2022/05/30 00:21:12;;;;;;;1.90;0.97;;;13.70;25.80;;;;;;5014124;28;20468;-79
2022/05/30 00:23:41;;;;;;;3.00;1.03;;;13.60;26.00;;;;;;5016713;28;20506;-78
2022/05/30 00:26:10;;;;;;;1.63;1.10;;;13.70;26.50;;;;;;5020032;28;20985;-78
2022/05/30 00:28:39;;;;;;;1.50;1.30;;;13.80;27.20;;;;;;5019177;28;20531;-77
2022/05/30 00:31:11;;;;;;;1.07;1.00;;;13.70;26.40;;;;;;5018041;28;20467;-77
2022/05/30 00:33:40;;;;;;;4.83;1.20;;;13.60;25.80;;;;;;5020994;28;20451;-77
2022/05/30 00:36:09;;;;;;;1.13;1.07;;;13.70;26.70;;;;;;5017702;28;20936;-78
2022/05/30 00:38:38;;;;;;;2.03;1.20;;;13.70;27.30;;;;;;5014562;28;20466;-77
2022/05/30 00:41:07;;;;;;;1.53;1.00;;;13.80;28.30;;;;;;5020243;28;20481;-77
2022/05/30 00:43:38;;;;;;;3.00;1.60;;;13.70;28.00;;;;;;5016352;28;20461;-77
2022/05/30 00:46:12;;;;;;;1.50;1.40;;;13.70;28.10;;;;;;5018890;28;20456;-77
2022/05/30 00:48:45;;;;;;;3.20;1.50;;;13.70;27.70;;;;;;5017800;28;20498;-77
2022/05/30 00:51:17;;;;;;;2.07;1.60;;;13.70;27.30;;;;;;5022095;28;20881;-77
2022/05/30 00:53:48;;;;;;;2.43;1.77;;;13.70;27.30;;;;;;5018271;28;21052;-78
2022/05/30 00:56:17;;;;;;;1.53;1.20;;;13.70;27.10;;;;;;5013604;28;20493;-78
2022/05/30 00:58:49;;;;;;;1.70;1.60;;;13.70;27.70;;;;;;5017630;28;20516;-77
2022/05/30 01:01:18;;;;;;;1.50;1.10;;;13.70;27.50;;;;;;5015720;28;20471;-76
2022/05/30 01:06:38;;;;;;;1.53;1.10;;;13.70;27.80;;;;;;5015242;28;20459;-77
2022/05/30 01:09:10;;;;;;;1.43;1.20;;;13.70;27.70;;;;;;5017415;28;20457;-76
2022/05/30 01:11:55;;;;;;;1.93;1.33;;;13.70;28.30;;;;;;5016633;28;20459;-77
2022/05/30 01:14:27;;;;;;;1.33;1.23;;;13.70;28.00;;;;;;5016621;28;20442;-77
2022/05/30 01:16:56;;;;;;;2.40;1.50;;;13.70;27.60;;;;;;5019534;28;20459;-76
2022/05/30 01:19:45;;;;;;;1.73;1.50;;;13.70;28.10;;;;;;5032051;28;20478;-77
2022/05/30 01:22:47;;;;;;;1.30;1.20;;;13.60;26.50;;;;;;5018182;28;20458;-77
2022/05/30 01:25:26;;;;;;;1.30;1.20;;;13.60;25.60;;;;;;5018903;28;21005;-76
2022/05/30 01:28:03;;;;;;;1.50;1.20;;;13.60;25.90;;;;;;5019813;28;20493;-76
2022/05/30 01:30:36;;;;;;;1.43;1.17;;;13.50;26.50;;;;;;5016013;28;20568;-77
2022/05/30 01:33:05;;;;;;;1.47;1.30;;;13.50;26.30;;;;;;5020965;28;20459;-77
2022/05/30 01:35:33;;;;;;;2.77;1.20;;;13.50;26.30;;;;;;5015678;28;20966;-77
2022/05/30 01:38:01;;;;;;;2.80;1.00;;;13.50;26.10;;;;;;5021703;28;20976;-77
2022/05/30 01:40:29;;;;;;;1.83;1.13;;;13.50;26.90;;;;;;5015418;28;21018;-77
2022/05/30 01:42:58;;;;;;;1.30;1.20;;;13.50;28.10;;;;;;5023588;28;20469;-76
2022/05/30 01:45:27;;;;;;;1.20;1.10;;;13.40;26.90;;;;;;5014568;28;20875;-76
2022/05/30 01:47:57;;;;;;;3.00;1.30;;;13.40;27.00;;;;;;5024839;28;20998;-77
2022/05/30 01:50:29;;;;;;;1.77;1.67;;;13.40;27.10;;;;;;5021325;28;20484;-77
2022/05/30 01:52:57;;;;;;;1.20;1.10;;;13.40;26.00;;;;;;5023430;28;20464;-78
2022/05/30 01:55:25;;;;;;;1.17;1.07;;;13.30;27.10;;;;;;5022231;28;21035;-77
2022/05/30 01:57:53;;;;;;;1.60;1.10;;;13.30;26.80;;;;;;5021939;28;20813;-77
2022/05/30 02:00:23;;;;;;;2.73;1.20;;;13.30;26.90;;;;;;5023760;28;20532;-78
2022/05/30 02:02:51;;;;;;;1.00;0.90;;;13.30;25.80;;;;;;5021377;28;20476;-76
2022/05/30 02:05:21;;;;;;;2.40;1.20;;;13.30;26.30;;;;;;5023256;28;20472;-77
2022/05/30 02:07:50;;;;;;;2.37;1.07;;;13.20;26.10;;;;;;5011783;28;21147;-77
2022/05/30 02:10:18;;;;;;;1.37;1.27;;;13.10;26.60;;;;;;5018680;28;20468;-76
2022/05/30 02:12:46;;;;;;;1.63;1.33;;;13.10;25.90;;;;;;5022021;28;20456;-77
2022/05/30 02:15:14;;;;;;;2.40;1.43;;;13.00;25.60;;;;;;5015613;28;20941;-77
2022/05/30 02:17:42;;;;;;;1.30;1.20;;;13.00;25.80;;;;;;5022361;28;20451;-77
2022/05/30 02:20:11;;;;;;;1.03;0.90;;;13.10;26.50;;;;;;5019698;28;21005;-77
2022/05/30 02:22:40;;;;;;;1.20;1.10;;;13.10;26.30;;;;;;5017987;28;20472;-77
2022/05/30 02:25:10;;;;;;;1.50;1.30;;;13.10;25.20;;;;;;5015628;28;20596;-76
2022/05/30 02:27:39;;;;;;;1.50;1.20;;;13.00;24.60;;;;;;5022969;28;21560;-76
2022/05/30 02:30:09;;;;;;;1.53;0.97;;;13.00;25.20;;;;;;5020531;28;21013;-76
2022/05/30 02:32:37;;;;;;;2.50;1.30;;;13.00;24.70;;;;;;5016489;28;20460;-77
2022/05/30 02:37:53;;;;;;;1.53;1.23;;;13.00;24.40;;;;;;5020708;28;20453;-77
2022/05/30 02:40:21;;;;;;;1.30;1.20;;;13.00;25.20;;;;;;5024634;28;21181;-77
2022/05/30 02:42:49;;;;;;;1.30;1.20;;;12.90;24.90;;;;;;5025335;28;20455;-77
2022/05/30 02:45:17;;;;;;;2.60;1.20;;;12.90;25.30;;;;;;5022808;28;20493;-77
2022/05/30 02:47:46;;;;;;;1.23;1.00;;;12.90;24.90;;;;;;5023789;28;20473;-77
2022/05/30 02:50:14;;;;;;;1.37;1.27;;;12.90;37.00;;;;;;5020100;28;20476;-77
2022/05/30 02:52:42;;;;;;;1.43;1.23;;;12.90;24.20;;;;;;5014717;28;20469;-77
2022/05/30 02:55:12;;;;;;;1.30;1.20;;;12.90;24.40;;;;;;5017758;28;20459;-77
2022/05/30 02:57:40;;;;;;;1.10;1.10;;;12.90;24.10;;;;;;5022706;28;20472;-77
2022/05/30 03:00:10;;;;;;;3.33;1.20;;;12.80;23.30;;;;;;5017036;28;20482;-76
2022/05/30 03:02:38;;;;;;;1.20;1.00;;;12.80;22.60;;;;;;5023068;28;20460;-77
2022/05/30 03:05:07;;;;;;;1.40;1.03;;;12.80;22.40;;;;;;5021770;28;20546;-77
2022/05/30 03:07:36;;;;;;;2.20;1.30;;;12.70;21.50;;;;;;5022432;28;20480;-78
2022/05/30 03:10:05;;;;;;;1.50;1.00;;;12.60;21.10;;;;;;5021899;28;20482;-77
2022/05/30 03:12:35;;;;;;;1.20;1.00;;;12.60;20.50;;;;;;5018249;28;20510;-77
2022/05/30 03:15:03;;;;;;;1.43;1.33;;;12.60;21.10;;;;;;5015400;28;20457;-76
2022/05/30 03:17:31;;;;;;;1.10;1.10;;;12.60;22.60;;;;;;5023745;28;20456;-77
2022/05/30 03:20:00;;;;;;;1.73;1.63;;;12.70;22.20;;;;;;5020405;28;20475;-77
2022/05/30 03:22:28;;;;;;;3.47;1.33;;;12.70;22.00;;;;;;5022417;28;20449;-77
2022/05/30 03:24:56;;;;;;;3.13;1.27;;;12.70;21.70;;;;;;5022234;28;20459;-76
2022/05/30 03:27:24;;;;;;;1.33;1.03;;;12.60;20.50;;;;;;5016881;28;20454;-77
2022/05/30 03:29:54;;;;;;;1.60;1.00;;;12.60;20.10;;;;;;5021104;28;20489;-77
2022/05/30 03:32:22;;;;;;;2.20;1.10;;;12.60;20.00;;;;;;5016924;28;20900;-75
2022/05/30 03:34:50;;;;;;;1.13;1.00;;;12.60;20.60;;;;;;5013905;28;21278;-77
2022/05/30 03:37:18;;;;;;;1.20;1.10;;;12.50;19.50;;;;;;5019952;28;20448;-77
2022/05/30 03:39:46;;;;;;;1.63;0.93;;;12.40;19.30;;;;;;5019280;28;21076;-77
2022/05/30 03:42:15;;;;;;;1.17;1.00;;;12.40;19.60;;;;;;5019326;28;20501;-76
2022/05/30 03:44:43;;;;;;;2.30;1.40;;;12.50;19.00;;;;;;5021013;28;20454;-77
2022/05/30 03:47:13;;;;;;;1.57;1.47;;;12.40;18.50;;;;;;5024024;28;20485;-77
2022/05/30 03:49:41;;;;;;;1.20;1.00;;;12.40;18.90;;;;;;5016941;28;20477;-77
2022/05/30 03:52:10;;;;;;;1.63;1.20;;;12.40;19.70;;;;;;5017441;28;20454;-76
2022/05/30 03:54:38;;;;;;;1.30;0.97;;;12.40;18.90;;;;;;5014931;28;20511;-77
2022/05/30 03:57:07;;;;;;;1.20;1.10;;;12.30;18.70;;;;;;5020287;28;20456;-76
2022/05/30 03:59:35;;;;;;;1.30;1.20;;;12.30;19.40;;;;;;5021244;28;20464;-76
2022/05/30 04:02:04;;;;;;;2.83;1.10;;;12.30;18.10;;;;;;5014824;28;20465;-76
2022/05/30 04:04:33;;;;;;;1.90;1.10;;;12.30;17.80;;;;;;5018357;28;20461;-76
2022/05/30 04:07:02;;;;;;;1.17;1.10;;;12.20;19.50;;;;;;5016534;28;20561;-76
2022/05/30 04:09:30;;;;;;;1.30;1.20;;;11.80;19.40;;;;;;5014835;28;20473;-76
2022/05/30 04:11:58;;;;;;;1.00;0.90;;;12.30;19.80;;;;;;5025476;28;20525;-72
2022/05/30 04:14:26;;;;;;;1.63;1.00;;;12.30;19.30;;;;;;5025754;28;20463;-73
2022/05/30 04:16:54;;;;;;;2.70;1.13;;;12.20;19.60;;;;;;5013367;28;20533;-72
2022/05/30 04:19:23;;;;;;;1.40;1.17;;;12.20;20.20;;;;;;5018503;28;20501;-75
2022/05/30 04:21:52;;;;;;;1.57;1.30;;;12.20;20.70;;;;;;5018473;28;20470;-76
2022/05/30 04:24:21;;;;;;;1.40;1.30;;;12.30;20.90;;;;;;5018652;28;20475;-76
2022/05/30 04:26:55;;;;;;;1.50;1.40;;;12.20;21.60;;;;;;5010756;28;20614;-77
2022/05/30 04:29:24;;;;;;;1.20;1.10;;;12.20;23.20;;;;;;5022616;28;20491;-77
2022/05/30 04:31:52;;;;;;;2.47;1.50;;;12.30;22.50;;;;;;5017969;28;21194;-77
2022/05/30 04:34:20;;;;;;;1.83;1.70;;;12.30;23.20;;;;;;5019267;28;21132;-77
2022/05/30 04:36:48;;;;;;;2.37;1.80;;;12.40;24.00;;;;;;5017939;28;20477;-77
2022/05/30 04:39:18;;;;;;;2.87;1.43;;;12.30;24.00;;;;;;5019497;28;20491;-78
2022/05/30 04:41:46;;;;;;;3.77;1.53;;;12.40;23.10;;;;;;5015191;28;20461;-76
2022/05/30 04:44:14;;;;;;;2.40;1.53;;;12.40;25.20;;;;;;5021271;28;20453;-76
2022/05/30 04:46:42;;;;;;;1.88;1.30;;;12.40;25.00;;;;;;5019815;28;21037;-77
2022/05/30 04:49:11;;;;;;;2.10;1.63;;;12.40;25.20;;;;;;5021746;28;20193;-76
2022/05/30 04:51:39;;;;;;;1.73;1.50;;;12.40;24.50;;;;;;5023430;28;20449;-76
2022/05/30 04:54:07;;;;;;;2.27;2.07;;;12.40;24.90;;;;;;5016951;28;20460;-76
2022/05/30 04:56:37;;;;;;;1.70;1.50;;;12.40;26.40;;;;;;5020288;28;20452;-76
2022/05/30 04:59:06;;;;;;;3.43;1.50;;;12.50;26.90;;;;;;5017551;28;20457;-76
2022/05/30 05:01:34;;;;;;;1.50;1.40;;;12.60;26.30;;;;;;5016300;28;20458;-77
2022/05/30 05:04:04;;;;;;;1.40;1.30;;;12.60;26.50;;;;;;5019735;28;20568;-76
2022/05/30 05:06:33;;;;;;;2.80;1.40;;;12.60;26.60;;;;;;5020892;28;20473;-77
2022/05/30 05:09:19;;;;;;;3.13;2.07;;;12.60;27.20;;;;;;5017370;28;20498;-76
2022/05/30 05:11:49;;;;;;;2.80;1.60;;;12.60;27.50;;;;;;5018097;28;20462;-76
2022/05/30 05:14:17;;;;;;;3.23;1.60;;;12.60;29.20;;;;;;5015939;28;20459;-77
2022/05/30 05:16:45;;;;;;;2.30;1.77;;;12.70;30.30;;;;;;5018518;28;20818;-77
2022/05/30 05:19:14;;;;;;;1.90;1.40;;;12.70;30.20;;;;;;5016773;28;20458;-77
2022/05/30 05:21:45;;;;;;;2.27;1.37;;;12.80;31.20;;;;;;5015596;28;20460;-77
2022/05/30 05:24:15;;;;;;;2.70;2.00;;;12.90;31.40;;;;;;5014006;28;20453;-77
2022/05/30 05:26:46;;;;;;;1.93;1.83;;;12.90;31.60;;;;;;5016141;28;20703;-78
2022/05/30 05:29:17;;;;;;;2.27;1.87;;;12.90;33.50;;;;;;5013301;28;20468;-78
2022/05/30 05:31:46;;;;;;;2.03;1.83;;;12.90;33.40;;;;;;5009917;28;20449;-76
2022/05/30 05:34:17;;;;;;;1.87;1.67;;;13.00;35.50;;;;;;5014569;28;20452;-76
2022/05/30 05:36:47;;;;;;;1.80;1.70;;;13.10;35.80;;;;;;5018454;28;20480;-77
2022/05/30 05:39:17;;;;;;;3.53;1.80;;;13.00;36.50;;;;;;5018848;28;20448;-76
2022/05/30 05:41:46;;;;;;;5.77;1.70;;;13.10;37.50;;;;;;5017975;28;20899;-76
2022/05/30 05:44:17;;;;;;;1.70;1.40;;;13.20;39.70;;;;;;5015515;28;20456;-75
2022/05/30 05:46:46;;;;;;;1.90;1.70;;;13.20;42.90;;;;;;5014852;28;20497;-77
2022/05/30 05:49:15;;;;;;;3.40;1.97;;;13.20;41.30;;;;;;5014549;28;20500;-76
2022/05/30 05:51:43;;;;;;;2.97;1.90;;;13.30;45.70;;;;;;5016305;28;20460;-76
2022/05/30 05:54:11;;;;;;;1.93;1.60;;;13.30;46.00;;;;;;5016505;28;20867;-76
2022/05/30 05:56:39;;;;;;;2.50;1.47;;;13.30;48.00;;;;;;5018894;28;20450;-77
2022/05/30 05:59:08;;;;;;;1.70;1.47;;;13.40;47.80;;;;;;5022047;28;20461;-76
2022/05/30 06:01:37;;;;;;;2.50;1.80;;;13.50;45.90;;;;;;5015828;28;20457;-77
2022/05/30 06:04:08;;;;;;;2.53;1.70;;;13.50;46.40;;;;;;5019633;28;20993;-77
2022/05/30 06:06:36;;;;;;;1.60;1.50;;;13.50;46.40;;;;;;5021121;28;20488;-77
2022/05/30 06:09:06;;;;;;;3.40;1.90;;;13.60;46.90;;;;;;5022277;28;20458;-77
2022/05/30 06:11:35;;;;;;;1.77;1.67;;;13.60;44.50;;;;;;5021274;28;20469;-77
2022/05/30 06:14:04;;;;;;;2.27;1.53;;;13.60;46.00;;;;;;5021697;28;20465;-77
2022/05/30 06:16:36;;;;;;;2.07;1.80;;;13.70;47.70;;;;;;5017732;28;20957;-76
2022/05/30 06:19:06;;;;;;;2.40;2.20;;;13.70;48.00;;;;;;5020267;28;20449;-76
2022/05/30 06:21:35;;;;;;;2.03;1.80;;;13.80;50.30;;;;;;5015744;28;20474;-77
2022/05/30 06:24:05;;;;;;;1.90;1.80;;;13.90;51.60;;;;;;5022712;28;20471;-76
2022/05/30 06:26:33;;;;;;;3.63;1.90;;;14.00;56.90;;;;;;5013460;28;20549;-76
2022/05/30 06:29:01;;;;;;;2.80;2.30;;;14.00;60.00;;;;;;5023370;28;20475;-76
2022/05/30 06:31:32;;;;;;;1.80;1.37;;;14.10;58.70;;;;;;5020140;28;20464;-77
2022/05/30 06:34:02;;;;;;;4.87;2.57;;;14.10;59.30;;;;;;5019560;28;20467;-78
2022/05/30 06:36:33;;;;;;;2.17;1.77;;;14.20;58.90;;;;;;5023965;28;20454;-78
2022/05/30 06:39:02;;;;;;;2.70;2.27;;;14.30;75.70;;;;;;5022741;28;21169;-79
2022/05/30 06:41:32;;;;;;;2.60;2.10;;;14.30;58.70;;;;;;5022995;28;20468;-78
2022/05/30 06:44:04;;;;;;;5.00;1.87;;;14.30;56.50;;;;;;5010642;28;20464;-78
2022/05/30 06:46:34;;;;;;;2.33;2.00;;;14.40;55.30;;;;;;5025851;28;20635;-79
2022/05/30 06:49:03;;;;;;;2.20;2.00;;;14.50;56.30;;;;;;5020665;28;20510;-78
2022/05/30 06:51:35;;;;;;;2.13;1.60;;;14.60;56.30;;;;;;5025631;28;20462;-78
2022/05/30 06:54:04;;;;;;;1.93;1.83;;;14.70;57.70;;;;;;5029929;28;20464;-78
2022/05/30 06:56:35;;;;;;;3.73;1.73;;;14.90;58.60;;;;;;5019803;28;20472;-78
2022/05/30 06:59:03;;;;;;;1.30;1.20;;;15.00;67.00;;;;;;5016138;28;20462;-79
2022/05/30 07:01:34;;;;;;;1.10;1.00;;;15.10;64.40;;;;;;5022274;28;20465;-78
2022/05/30 07:04:02;;;;;;;2.10;1.27;;;15.20;65.20;;;;;;5025012;28;20528;-78
2022/05/30 07:06:35;;;;;;;5.03;1.33;;;15.30;69.60;;;;;;5021753;28;20455;-79
2022/05/30 07:09:06;;;;;;;1.97;1.20;;;15.40;67.20;;;;;;5022843;28;20508;-78
2022/05/30 07:11:39;;;;;;;1.50;1.40;;;15.50;65.20;;;;;;5029412;28;20473;-78
2022/05/30 07:14:10;;;;;;;2.00;1.60;;;15.60;62.90;;;;;;5028751;28;20875;-77
2022/05/30 07:16:38;;;;;;;1.57;1.47;;;15.60;61.00;;;;;;5020687;28;20458;-78
2022/05/30 07:19:09;;;;;;;1.70;1.17;;;15.70;64.20;;;;;;5013818;28;20459;-78
2022/05/30 07:21:41;;;;;;;3.60;1.40;;;15.70;63.30;;;;;;5022739;28;20460;-79
2022/05/30 07:24:11;;;;;;;2.40;1.27;;;15.80;63.40;;;;;;5022549;28;20521;-78
2022/05/30 07:26:40;;;;;;;3.17;1.57;;;15.80;65.60;;;;;;5016041;28;20472;-79
2022/05/30 07:29:09;;;;;;;2.43;1.40;;;15.90;65.70;;;;;;5020098;28;20479;-78
2022/05/30 07:31:37;;;;;;;2.90;1.47;;;15.90;66.90;;;;;;5028801;28;21020;-79
2022/05/30 07:34:06;;;;;;;2.40;1.30;;;16.00;66.00;;;;;;5028431;28;20471;-78
2022/05/30 07:36:34;;;;;;;1.30;1.13;;;16.00;63.40;;;;;;5028282;28;20456;-78
2022/05/30 07:39:05;;;;;;;1.30;1.20;;;16.10;64.80;;;;;;5028066;28;20962;-78
2022/05/30 07:41:33;;;;;;;1.80;1.30;;;16.10;63.50;;;;;;5023864;28;20466;-78
2022/05/30 07:44:02;;;;;;;2.27;1.97;;;16.10;62.40;;;;;;5025561;28;20460;-78
2022/05/30 07:46:30;;;;;;;2.87;1.20;;;16.20;63.40;;;;;;5026398;28;20461;-79
2022/05/30 07:48:59;;;;;;;1.27;1.17;;;16.20;61.30;;;;;;5018609;28;20569;-77
2022/05/30 07:51:27;;;;;;;2.03;1.20;;;16.20;61.60;;;;;;5028695;28;20463;-79
2022/05/30 07:53:55;;;;;;;2.70;1.17;;;16.30;62.90;;;;;;5028770;28;21044;-79
2022/05/30 07:56:26;;;;;;;2.83;1.00;;;16.30;58.70;;;;;;5027488;28;20440;-79
2022/05/30 07:58:54;;;;;;;2.30;0.90;;;16.40;57.40;;;;;;5017989;28;20462;-78
2022/05/30 08:01:23;;;;;;;1.40;1.00;;;16.50;55.10;;;;;;5028148;28;20508;-78
2022/05/30 08:03:53;;;;;;;2.87;1.00;;;16.50;53.00;;;;;;5027827;28;20526;-79
2022/05/30 08:06:24;;;;;;;2.70;1.20;;;16.60;51.60;;;;;;5027885;28;20440;-78
2022/05/30 08:08:53;;;;;;;1.10;0.90;;;16.60;46.70;;;;;;5028027;28;20471;-78
2022/05/30 08:11:22;;;;;;;1.60;1.03;;;16.60;47.30;;;;;;5022461;28;20475;-79
2022/05/30 08:13:52;;;;;;;1.23;0.90;;;16.60;46.90;;;;;;5019339;28;20475;-78
2022/05/30 08:16:23;;;;;;;1.70;1.10;;;16.70;50.20;;;;;;5025112;28;20483;-79
2022/05/30 08:19:12;;;;;;;1.43;1.10;;;16.80;45.20;;;;;;5018459;28;20532;-78
2022/05/30 08:22:05;;;;;;;1.53;0.80;;;16.90;44.70;;;;;;5020462;28;20452;-79
2022/05/30 08:24:36;;;;;;;0.80;0.80;;;16.90;42.70;;;;;;5028092;28;20978;-79
2022/05/30 08:27:06;;;;;;;2.13;1.10;;;17.00;39.40;;;;;;5027992;28;20447;-79
2022/05/30 08:29:36;;;;;;;2.40;0.90;;;17.00;36.20;;;;;;5016043;28;20485;-79
2022/05/30 08:32:06;;;;;;;2.10;1.00;;;17.00;39.10;;;;;;5017965;28;20502;-77
2022/05/30 08:34:36;;;;;;;2.30;1.57;;;17.10;37.00;;;;;;5020000;28;20458;-77
2022/05/30 08:37:05;;;;;;;0.70;0.70;;;17.10;35.50;;;;;;5027453;28;20454;-78
2022/05/30 08:42:23;;;;;;;3.23;1.00;;;17.10;33.50;;;;;;5025444;28;20576;-78
2022/05/30 08:44:53;;;;;;;0.97;0.97;;;17.10;32.70;;;;;;5027729;28;20458;-78
2022/05/30 08:47:38;;;;;;;2.00;1.30;;;17.20;34.80;;;;;;5028798;28;20570;-79
2022/05/30 08:50:13;;;;;;;2.67;1.00;;;17.20;34.70;;;;;;5022845;28;20630;-79
2022/05/30 08:53:00;;;;;;;1.67;1.33;;;17.20;34.00;;;;;;5023709;28;20474;-79
2022/05/30 08:55:44;;;;;;;1.00;0.90;;;17.20;34.40;;;;;;5024997;28;20466;-78
2022/05/30 08:58:25;;;;;;;2.03;1.00;;;17.10;28.50;;;;;;5019820;28;20453;-78
2022/05/30 09:00:57;;;;;;;3.37;1.17;;;16.70;27.00;;;;;;5015071;28;20484;-79
2022/05/30 09:03:31;;;;;;;0.73;0.73;;;16.80;30.50;;;;;;5027358;28;21127;-79
2022/05/30 09:06:05;;;;;;;1.37;1.10;;;17.00;32.40;;;;;;5026172;28;20535;-78
2022/05/30 09:08:38;;;;;;;1.40;1.00;;;17.10;35.00;;;;;;5016762;28;20573;-78
2022/05/30 09:11:15;;;;;;;1.13;0.90;;;17.30;34.50;;;;;;5026761;28;20480;-79
2022/05/30 09:13:47;;;;;;;1.30;1.20;;;17.20;29.90;;;;;;5024667;28;20457;-78
2022/05/30 09:16:21;;;;;;;1.00;1.00;;;17.20;29.10;;;;;;5020343;28;20471;-79
2022/05/30 09:18:53;;;;;;;0.80;0.80;;;17.20;28.40;;;;;;5027308;28;20463;-79
2022/05/30 09:21:29;;;;;;;1.70;1.17;;;17.20;27.90;;;;;;5021876;28;20441;-79
2022/05/30 09:23:58;;;;;;;1.63;1.27;;;17.20;26.80;;;;;;5027053;28;20451;-78
2022/05/30 09:26:31;;;;;;;2.00;1.07;;;17.40;32.00;;;;;;5017277;28;20470;-79
2022/05/30 09:29:04;;;;;;;1.17;0.90;;;17.40;28.40;;;;;;5027154;28;20483;-78
2022/05/30 09:31:45;;;;;;;1.07;1.00;;;17.60;29.30;;;;;;5016372;28;20459;-79
2022/05/30 09:34:34;;;;;;;1.20;0.90;;;17.60;27.70;;;;;;5026865;28;20546;-79
2022/05/30 09:37:03;;;;;;;1.10;1.00;;;17.70;28.30;;;;;;5016574;28;20452;-79
2022/05/30 09:39:43;;;;;;;1.53;0.90;;;17.80;27.50;;;;;;5025519;28;20474;-79
2022/05/30 09:42:24;;;;;;;1.27;1.10;;;17.80;27.40;;;;;;5018799;28;20472;-79
2022/05/30 09:44:57;;;;;;;1.43;1.30;;;17.90;28.90;;;;;;5026451;28;20444;-79
2022/05/30 09:47:27;;;;;;;0.90;0.80;;;17.70;24.00;;;;;;5023858;28;20452;-79
2022/05/30 09:49:56;;;;;;;0.80;0.80;;;17.80;23.70;;;;;;5021238;28;20483;-80
2022/05/30 09:52:36;;;;;;;1.20;0.80;;;17.90;26.20;;;;;;5027143;28;20460;-80
2022/05/30 09:55:33;;;;;;;0.90;0.77;;;18.00;27.40;;;;;;5030340;28;20463;-78
2022/05/30 09:58:04;;;;;;;1.30;0.70;;;18.10;30.00;;;;;;5019093;28;20503;-79
2022/05/30 10:00:38;;;;;;;0.60;0.60;;;18.20;32.10;;;;;;5016464;28;20907;-79
2022/05/30 10:03:25;;;;;;;1.00;0.83;;;18.30;29.00;;;;;;5024318;28;20556;-79
2022/05/30 10:06:13;;;;;;;0.80;0.80;;;18.30;24.80;;;;;;5022407;28;20468;-78
2022/05/30 10:08:41;;;;;;;0.70;0.70;;;18.20;22.90;;;;;;5030821;28;20467;-79
2022/05/30 10:11:10;;;;;;;1.10;0.70;;;18.30;25.70;;;;;;5030774;28;20538;-79
2022/05/30 10:13:40;;;;;;;1.03;0.80;;;18.30;25.00;;;;;;5029081;28;20513;-80
2022/05/30 10:16:12;;;;;;;1.10;1.00;;;18.40;24.00;;;;;;5017743;28;20466;-79
2022/05/30 10:18:51;;;;;;;1.20;0.70;;;18.40;21.40;;;;;;5017821;28;20463;-79
2022/05/30 10:21:32;;;;;;;0.90;0.80;;;18.40;21.20;;;;;;5023393;28;20851;-79
2022/05/30 10:30:10;;;;;;;2.10;0.90;;;18.60;25.00;;;;;;5030049;28;20479;-79
2022/05/30 10:32:48;;;;;;;1.07;0.97;;;18.60;26.90;;;;;;5011380;28;20482;-78
2022/05/30 10:35:25;;;;;;;0.80;0.80;;;18.80;24.70;;;;;;5025009;28;20444;-79
2022/05/30 10:38:22;;;;;;;0.80;0.70;;;18.80;27.70;;;;;;5030096;28;20502;-79
2022/05/30 10:41:08;;;;;;;0.97;0.80;;;18.90;29.80;;;;;;5022120;28;20475;-79
2022/05/30 10:43:49;;;;;;;1.40;0.93;;;18.90;28.40;;;;;;5033688;28;20510;-78
2022/05/30 10:46:23;;;;;;;2.60;0.93;;;19.00;29.70;;;;;;5022043;28;20523;-79
2022/05/30 10:48:58;;;;;;;1.80;1.00;;;19.00;29.00;;;;;;5029537;28;20452;-77
2022/05/30 10:51:32;;;;;;;0.70;0.70;;;19.10;27.90;;;;;;5024214;28;20457;-80
2022/05/30 10:54:06;;;;;;;1.33;1.00;;;19.00;28.60;;;;;;5030205;28;20463;-78
2022/05/30 10:56:38;;;;;;;0.70;0.70;;;19.10;28.30;;;;;;5025178;28;20470;-78
2022/05/30 10:59:17;;;;;;;0.80;0.80;;;19.00;26.10;;;;;;5029010;28;20507;-79
2022/05/30 11:01:50;;;;;;;0.97;0.90;;;19.00;26.30;;;;;;5029947;28;20468;-80
2022/05/30 11:04:46;;;;;;;1.10;0.80;;;18.90;25.30;;;;;;5016498;28;20449;-78
2022/05/30 11:07:43;;;;;;;0.70;0.70;;;18.90;24.90;;;;;;5018219;28;20461;-79
2022/05/30 11:10:39;;;;;;;0.70;0.67;;;18.90;24.90;;;;;;5022344;28;20487;-78
2022/05/30 11:13:17;;;;;;;1.20;0.80;;;18.90;23.80;;;;;;5029609;28;20444;-80
2022/05/30 11:15:49;;;;;;;0.80;0.80;;;18.80;34.60;;;;;;5026488;28;20475;-79
2022/05/30 11:18:28;;;;;;;0.70;0.67;;;18.70;33.20;;;;;;5020129;28;20959;-79
2022/05/30 11:21:04;;;;;;;1.47;0.80;;;18.70;20.20;;;;;;5029665;28;20572;-80
2022/05/30 11:23:34;;;;;;;1.33;1.00;;;18.70;19.20;;;;;;5024493;28;20448;-79
2022/05/30 11:26:19;;;;;;;1.23;0.70;;;18.70;20.90;;;;;;5025734;28;20455;-79
2022/05/30 11:29:09;;;;;;;0.90;0.77;;;18.80;21.40;;;;;;5025719;28;21235;-79
2022/05/30 11:31:46;;;;;;;1.73;0.80;;;18.80;21.50;;;;;;5029434;28;20448;-79
2022/05/30 11:34:30;;;;;;;0.90;0.83;;;18.90;23.40;;;;;;5029333;28;20440;-79
2022/05/30 11:37:28;;;;;;;3.73;1.17;;;19.00;24.20;;;;;;5027660;28;20480;-79
2022/05/30 11:40:15;;;;;;;0.87;0.80;;;19.10;23.10;;;;;;5028916;28;20559;-80
2022/05/30 11:42:50;;;;;;;0.80;0.77;;;19.20;25.00;;;;;;5018480;28;20452;-79
2022/05/30 11:45:46;;;;;;;1.17;1.00;;;19.30;21.10;;;;;;5012585;28;20500;-79
2022/05/30 11:48:22;;;;;;;0.70;0.70;;;19.20;19.20;;;;;;5025241;28;20460;-79
2022/05/30 11:50:57;;;;;;;1.00;0.90;;;19.20;21.50;;;;;;5024769;28;20485;-79
2022/05/30 11:53:52;;;;;;;1.60;0.80;;;19.10;19.40;;;;;;5044304;28;20491;-79
2022/05/30 11:56:29;;;;;;;3.13;0.90;;;19.20;23.60;;;;;;5027869;28;20502;-78
2022/05/30 11:59:11;;;;;;;0.80;0.70;;;19.30;21.70;;;;;;5021907;28;20449;-78
2022/05/30 12:01:45;;;;;;;1.50;0.80;;;19.40;22.60;;;;;;5020787;28;20449;-80
2022/05/30 12:04:44;;;;;;;1.23;0.70;;;19.40;21.20;;;;;;5025797;28;20448;-77
2022/05/30 12:07:51;;;;;;;0.87;0.87;;;19.40;21.40;;;;;;5014279;28;20456;-79
2022/05/30 12:10:48;;;;;;;1.80;0.90;;;19.40;22.30;;;;;;5014559;28;20488;-79
2022/05/30 12:13:41;;;;;;;1.33;0.80;;;19.40;22.90;;;;;;5022058;28;20480;-79
2022/05/30 12:16:23;;;;;;;1.00;0.80;;;19.40;22.50;;;;;;5014179;28;20457;-79
2022/05/30 12:24:49;;;;;;;1.17;0.80;;;19.40;22.50;;;;;;5016445;28;20453;-79
2022/05/30 12:27:37;;;;;;;1.20;1.10;;;19.40;23.40;;;;;;5018166;28;20444;-78
2022/05/30 12:30:15;;;;;;;2.07;0.73;;;19.40;21.60;;;;;;5015323;28;20852;-79
2022/05/30 12:32:46;;;;;;;1.00;0.70;;;19.50;22.20;;;;;;5014191;28;21101;-79
2022/05/30 12:35:27;;;;;;;1.20;0.70;;;19.50;20.90;;;;;;5011825;28;20864;-79
2022/05/30 12:38:16;;;;;;;0.80;0.80;;;19.40;18.50;;;;;;5012326;28;21181;-79
2022/05/30 12:41:15;;;;;;;0.77;0.77;;;19.50;22.00;;;;;;5025365;28;20464;-79
2022/05/30 12:43:46;;;;;;;1.93;0.83;;;19.60;32.10;;;;;;5027869;28;20471;-79
2022/05/30 12:46:24;;;;;;;0.80;0.80;;;19.60;22.00;;;;;;5023902;28;20463;-79
2022/05/30 12:49:16;;;;;;;0.70;0.70;;;19.70;22.60;;;;;;5019889;28;20472;-79
2022/05/30 12:52:14;;;;;;;0.80;0.80;;;19.70;22.20;;;;;;5016619;28;21150;-79
2022/05/30 12:55:01;;;;;;;0.70;0.70;;;19.70;21.10;;;;;;5021498;28;20455;-79
2022/05/30 12:57:42;;;;;;;0.80;0.80;;;19.80;21.60;;;;;;5015869;28;20964;-79
2022/05/30 13:00:45;;;;;;;1.30;0.80;;;19.80;21.90;;;;;;5022575;28;20464;-79
2022/05/30 13:03:39;;;;;;;0.70;0.70;;;19.90;22.70;;;;;;5019433;28;20455;-80
2022/05/30 13:06:20;;;;;;;0.80;0.80;;;19.90;23.70;;;;;;5012484;28;20468;-79
2022/05/30 13:09:14;;;;;;;0.80;0.80;;;19.90;22.40;;;;;;5023313;28;20539;-79
2022/05/30 13:12:01;;;;;;;0.70;0.70;;;20.00;22.40;;;;;;5027589;28;20494;-79
2022/05/30 13:14:43;;;;;;;1.37;0.60;;;20.00;23.50;;;;;;5026305;28;20464;-79
2022/05/30 13:17:23;;;;;;;2.30;0.60;;;20.00;23.10;;;;;;5018291;28;20457;-79
2022/05/30 13:19:55;;;;;;;1.10;0.77;;;20.00;23.00;;;;;;5027453;28;20476;-79
2022/05/30 13:22:31;;;;;;;0.70;0.70;;;20.10;23.20;;;;;;5020659;28;20542;-79
2022/05/30 13:25:00;;;;;;;0.77;0.77;;;20.10;25.30;;;;;;5016835;28;20440;-79
2022/05/30 13:27:29;;;;;;;1.00;0.70;;;20.10;24.70;;;;;;5029458;28;20463;-80
2022/05/30 13:30:02;;;;;;;1.37;0.70;;;20.10;22.00;;;;;;5027172;28;20480;-79
2022/05/30 13:32:32;;;;;;;0.80;0.60;;;20.20;21.80;;;;;;5020519;28;20480;-79
2022/05/30 13:35:06;;;;;;;1.00;0.80;;;20.20;31.60;;;;;;5019739;28;20483;-79
2022/05/30 13:37:38;;;;;;;0.90;0.90;;;20.10;22.50;;;;;;5023954;28;20448;-80
2022/05/30 13:40:09;;;;;;;1.37;0.77;;;20.20;22.80;;;;;;5026137;28;20480;-80